createdAt,value
2019-05-25T00:00:10.276Z,11.10
2019-05-25T00:02:39.448Z,10.00
2019-05-25T00:05:09.124Z,11.50
2019-05-25T00:07:38.842Z,11.10
2019-05-25T00:10:08.638Z,11.30
2019-05-25T00:12:38.096Z,11.27
2019-05-25T00:15:07.467Z,10.47
2019-05-25T00:17:36.548Z,11.63
2019-05-25T00:20:07.474Z,11.60
2019-05-25T00:22:36.888Z,10.80
2019-05-25T00:25:07.475Z,11.43
2019-05-25T00:27:36.557Z,11.20
2019-05-25T00:30:07.190Z,9.67
2019-05-25T00:32:36.281Z,12.17
2019-05-25T00:35:06.454Z,11.27
2019-05-25T00:37:35.828Z,11.00
2019-05-25T00:40:08.232Z,10.77
2019-05-25T00:42:37.352Z,10.17
2019-05-25T00:45:07.382Z,11.50
2019-05-25T00:47:37.085Z,12.43
2019-05-25T00:50:09.449Z,11.87
2019-05-25T00:52:38.531Z,11.50
2019-05-25T00:55:07.897Z,10.67
2019-05-25T00:57:39.544Z,11.57
2019-05-25T01:00:08.788Z,11.50
2019-05-25T01:02:40.141Z,11.47
2019-05-25T01:05:09.413Z,11.13
2019-05-25T01:07:38.785Z,10.57
2019-05-25T01:10:08.200Z,12.73
2019-05-25T01:12:37.320Z,9.77
2019-05-25T01:15:08.558Z,10.00
2019-05-25T01:17:37.700Z,9.63
2019-05-25T01:20:10.278Z,10.77
2019-05-25T01:22:39.891Z,10.00
2019-05-25T01:25:09.936Z,10.97
2019-05-25T01:27:39.005Z,9.80
2019-05-25T01:30:09.334Z,12.50
2019-05-25T01:32:38.830Z,11.57
2019-05-25T01:35:08.071Z,10.83
2019-05-25T01:37:37.153Z,10.27
2019-05-25T01:40:06.673Z,9.77
2019-05-25T01:42:35.761Z,11.07
2019-05-25T01:45:07.927Z,12.00
2019-05-25T01:47:37.095Z,12.43
2019-05-25T01:50:06.612Z,12.47
2019-05-25T01:52:35.750Z,14.30
2019-05-25T01:55:06.352Z,12.27
2019-05-25T01:57:35.704Z,12.50
2019-05-25T02:00:06.396Z,12.90
2019-05-25T02:02:35.815Z,10.67
2019-05-25T02:05:06.268Z,11.73
2019-05-25T02:07:35.373Z,10.80
2019-05-25T02:10:08.424Z,12.87
2019-05-25T02:12:38.686Z,13.13
2019-05-25T02:15:08.706Z,13.23
2019-05-25T02:17:37.881Z,13.93
2019-05-25T02:20:08.948Z,14.03
2019-05-25T02:22:38.058Z,14.70
2019-05-25T02:25:17.724Z,13.07
2019-05-25T02:27:39.629Z,12.10
2019-05-25T02:30:10.256Z,12.00
2019-05-25T02:32:39.723Z,13.20
2019-05-25T02:35:08.899Z,13.80
2019-05-25T02:37:38.001Z,12.43
2019-05-25T02:40:08.614Z,13.67
2019-05-25T02:42:37.715Z,12.90
2019-05-25T02:45:07.370Z,13.00
2019-05-25T02:47:36.488Z,12.13
2019-05-25T02:50:09.242Z,13.10
2019-05-25T02:52:38.394Z,13.23
2019-05-25T02:55:10.881Z,13.40
2019-05-25T02:57:39.993Z,14.00
2019-05-25T03:00:10.013Z,13.63
2019-05-25T03:02:39.385Z,13.27
2019-05-25T03:05:11.513Z,15.50
2019-05-25T03:07:40.688Z,15.53
2019-05-25T03:10:10.165Z,17.63
2019-05-25T03:12:39.473Z,13.57
2019-05-25T03:15:09.424Z,14.43
2019-05-25T03:17:38.536Z,13.93
2019-05-25T03:20:07.723Z,14.57
2019-05-25T03:22:36.824Z,14.43
2019-05-25T03:25:07.054Z,14.27
2019-05-25T03:27:36.541Z,13.77
2019-05-25T03:30:09.907Z,14.70
2019-05-25T03:32:39.062Z,14.63
2019-05-25T03:35:08.430Z,14.57
2019-05-25T03:37:37.563Z,14.87
2019-05-25T03:40:07.830Z,15.73
2019-05-25T03:42:36.965Z,14.60
2019-05-25T03:45:07.749Z,15.37
2019-05-25T03:47:36.932Z,14.57
2019-05-25T03:50:06.578Z,13.67
2019-05-25T03:52:35.808Z,12.90
2019-05-25T03:55:06.736Z,11.33
2019-05-25T03:57:35.903Z,13.27
2019-05-25T04:00:08.201Z,14.03
2019-05-25T04:02:38.603Z,12.03
2019-05-25T04:05:07.705Z,10.43
2019-05-25T04:07:37.096Z,10.47
2019-05-25T04:10:07.281Z,10.97
2019-05-25T04:12:36.397Z,12.77
2019-05-25T04:15:06.925Z,11.20
2019-05-25T04:17:36.017Z,9.57
2019-05-25T04:20:06.854Z,10.17
2019-05-25T04:22:36.057Z,10.67
2019-05-25T04:25:06.520Z,8.83
2019-05-25T04:27:35.596Z,9.30
2019-05-25T04:30:06.928Z,7.77
2019-05-25T04:32:35.973Z,8.83
2019-05-25T04:35:06.701Z,7.13
2019-05-25T04:37:36.052Z,9.37
2019-05-25T04:40:08.365Z,9.27
2019-05-25T04:42:37.773Z,8.03
2019-05-25T04:45:07.382Z,9.60
2019-05-25T04:47:36.512Z,10.23
2019-05-25T04:50:07.366Z,9.03
2019-05-25T04:52:36.477Z,9.00
2019-05-25T04:55:07.212Z,7.97
2019-05-25T04:57:36.303Z,6.80
2019-05-25T05:00:08.322Z,7.43
2019-05-25T05:02:37.659Z,6.80
2019-05-25T05:05:07.926Z,8.97
2019-05-25T05:07:37.172Z,9.10
2019-05-25T05:10:09.580Z,10.27
2019-05-25T05:12:38.946Z,10.90
2019-05-25T05:15:08.211Z,7.87
2019-05-25T05:17:37.310Z,10.53
2019-05-25T05:20:07.669Z,12.47
2019-05-25T05:22:37.007Z,7.93
2019-05-25T05:25:07.270Z,10.10
2019-05-25T05:27:36.809Z,7.50
2019-05-25T05:30:08.175Z,7.40
2019-05-25T05:32:37.336Z,8.40
2019-05-25T05:35:07.664Z,9.53
2019-05-25T05:37:37.196Z,6.43
2019-05-25T05:40:09.541Z,6.80
2019-05-25T05:42:39.589Z,6.50
2019-05-25T05:45:09.061Z,8.00
2019-05-25T05:47:38.655Z,4.60
2019-05-25T05:50:09.512Z,6.77
2019-05-25T05:52:39.267Z,4.47
2019-05-25T05:55:10.726Z,8.10
2019-05-25T05:57:39.802Z,5.23
2019-05-25T06:00:10.797Z,6.37
2019-05-25T06:02:39.987Z,6.87
2019-05-25T06:05:09.674Z,7.37
2019-05-25T06:07:39.031Z,6.23
2019-05-25T06:10:08.304Z,6.40
2019-05-25T06:12:37.796Z,5.27
2019-05-25T06:15:07.561Z,9.07
2019-05-25T06:17:36.668Z,5.90
2019-05-25T06:20:07.410Z,5.33
2019-05-25T06:22:36.570Z,5.90
2019-05-25T06:25:07.438Z,6.10
2019-05-25T06:27:36.582Z,4.97
2019-05-25T06:30:08.747Z,3.53
2019-05-25T06:32:38.186Z,10.83
2019-05-25T06:35:07.435Z,6.33
2019-05-25T06:37:36.552Z,8.60
2019-05-25T06:40:06.923Z,4.97
2019-05-25T06:42:36.284Z,5.20
2019-05-25T06:45:06.651Z,5.23
2019-05-25T06:47:35.794Z,5.37
2019-05-25T06:50:08.888Z,3.73
2019-05-25T06:52:38.241Z,3.73
2019-05-25T06:55:07.912Z,4.87
2019-05-25T06:57:43.103Z,6.60
2019-05-25T07:00:09.959Z,4.90
2019-05-25T07:02:39.485Z,4.30
2019-05-25T07:05:08.935Z,4.30
2019-05-25T07:07:38.050Z,9.67
2019-05-25T07:10:09.017Z,9.17
2019-05-25T07:12:38.452Z,6.07
2019-05-25T07:15:08.571Z,9.37
2019-05-25T07:17:38.161Z,6.77
2019-05-25T07:20:07.727Z,10.87
2019-05-25T07:22:37.094Z,11.20
2019-05-25T07:25:11.424Z,8.47
2019-05-25T07:27:40.538Z,18.07
2019-05-25T07:30:10.707Z,6.57
2019-05-25T07:32:39.793Z,7.07
2019-05-25T07:35:09.859Z,5.17
2019-05-25T07:37:38.967Z,5.53
2019-05-25T07:40:08.399Z,4.57
2019-05-25T07:42:37.493Z,6.43
2019-05-25T07:45:08.352Z,5.47
2019-05-25T07:47:37.421Z,4.93
2019-05-25T07:50:08.333Z,3.73
2019-05-25T07:52:37.772Z,5.07
2019-05-25T07:55:07.596Z,4.43
2019-05-25T07:57:36.682Z,4.90
2019-05-25T08:00:07.821Z,7.40
2019-05-25T08:02:36.904Z,6.93
2019-05-25T08:05:07.150Z,5.60
2019-05-25T08:07:36.533Z,5.83
2019-05-25T08:10:07.673Z,5.17
2019-05-25T08:12:36.776Z,4.50
2019-05-25T08:15:08.303Z,3.27
2019-05-25T08:17:37.376Z,4.93
2019-05-25T08:20:06.986Z,4.70
2019-05-25T08:22:36.071Z,8.23
2019-05-25T08:25:07.154Z,7.20
2019-05-25T08:27:36.258Z,7.73
2019-05-25T08:30:08.464Z,7.83
2019-05-25T08:32:37.929Z,4.53
2019-05-25T08:35:07.514Z,4.77
2019-05-25T08:37:36.876Z,8.20
2019-05-25T08:40:08.338Z,3.90
2019-05-25T08:42:37.420Z,7.30
2019-05-25T08:45:08.774Z,7.50
2019-05-25T08:47:37.969Z,3.73
2019-05-25T08:50:08.227Z,4.67
2019-05-25T08:52:37.633Z,4.13
2019-05-25T08:55:07.446Z,5.20
2019-05-25T08:57:36.831Z,7.83
2019-05-25T09:00:06.302Z,8.57
2019-05-25T09:02:35.687Z,5.70
2019-05-25T09:05:06.721Z,6.50
2019-05-25T09:07:35.854Z,5.23
2019-05-25T09:10:08.070Z,5.53
2019-05-25T09:12:37.193Z,5.70
2019-05-25T09:15:06.910Z,6.63
2019-05-25T09:17:36.343Z,9.17
2019-05-25T09:20:06.690Z,5.13
2019-05-25T09:22:35.786Z,5.90
2019-05-25T09:25:08.632Z,4.97
2019-05-25T09:27:37.723Z,7.77
2019-05-25T09:30:10.163Z,8.10
2019-05-25T09:32:40.087Z,8.70
2019-05-25T09:35:10.180Z,8.50
2019-05-25T09:37:39.294Z,8.37
2019-05-25T09:40:09.680Z,7.83
2019-05-25T09:42:39.215Z,7.63
2019-05-25T09:45:09.303Z,8.67
2019-05-25T09:47:38.683Z,6.93
2019-05-25T09:50:08.748Z,8.47
2019-05-25T09:52:38.161Z,8.20
2019-05-25T09:55:08.716Z,7.43
2019-05-25T09:57:41.409Z,11.17
2019-05-25T10:00:10.334Z,8.20
2019-05-25T10:02:39.575Z,10.00
2019-05-25T10:05:09.499Z,10.27
2019-05-25T10:07:38.929Z,13.47
2019-05-25T10:10:08.817Z,12.27
2019-05-25T10:12:37.952Z,12.03
2019-05-25T10:15:07.603Z,16.97
2019-05-25T10:17:36.706Z,14.60
2019-05-25T10:20:06.202Z,13.90
2019-05-25T10:22:35.338Z,15.53
2019-05-25T10:25:07.891Z,14.17
2019-05-25T10:27:37.003Z,12.70
2019-05-25T10:30:06.527Z,12.00
2019-05-25T10:32:35.926Z,14.50
2019-05-25T10:35:06.965Z,15.37
2019-05-25T10:37:36.052Z,16.37
2019-05-25T10:40:07.689Z,20.50
2019-05-25T10:42:37.128Z,19.93
2019-05-25T10:45:07.774Z,15.33
2019-05-25T10:47:36.885Z,14.80
2019-05-25T10:50:09.132Z,16.53
2019-05-25T10:52:38.323Z,15.50
2019-05-25T10:55:08.786Z,17.70
2019-05-25T10:57:39.179Z,13.73
2019-05-25T11:00:09.407Z,15.43
2019-05-25T11:02:38.493Z,16.33
2019-05-25T11:05:09.712Z,14.83
2019-05-25T11:07:38.826Z,15.73
2019-05-25T11:10:09.482Z,17.73
2019-05-25T11:12:38.562Z,16.87
2019-05-25T11:15:08.093Z,16.03
2019-05-25T11:17:37.188Z,14.40
2019-05-25T11:20:08.949Z,16.87
2019-05-25T11:22:38.313Z,17.70
2019-05-25T11:25:09.155Z,18.43
2019-05-25T11:27:38.631Z,14.00
2019-05-25T11:30:10.207Z,17.33
2019-05-25T11:32:39.533Z,19.00
2019-05-25T11:35:10.430Z,13.97
2019-05-25T11:37:39.512Z,16.60
2019-05-25T11:40:10.598Z,17.17
2019-05-25T11:42:39.686Z,18.40
2019-05-25T11:45:10.644Z,18.57
2019-05-25T11:47:39.761Z,16.07
2019-05-25T11:50:09.611Z,21.23
2019-05-25T11:52:38.995Z,16.67
2019-05-25T11:55:09.454Z,19.63
2019-05-25T11:57:38.565Z,19.27
2019-05-25T12:00:23.634Z,17.47
2019-05-25T12:02:40.455Z,14.57
2019-05-25T12:05:10.097Z,17.20
2019-05-25T12:07:39.434Z,15.20
2019-05-25T12:10:08.892Z,18.23
2019-05-25T12:12:38.297Z,18.13
2019-05-25T12:15:11.437Z,17.87
2019-05-25T12:17:40.771Z,19.10
2019-05-25T12:20:10.225Z,15.47
2019-05-25T12:22:39.331Z,16.50
2019-05-25T12:25:08.759Z,15.90
2019-05-25T12:27:37.877Z,14.07
2019-05-25T12:30:11.695Z,15.77
2019-05-25T12:32:41.161Z,15.43
2019-05-25T12:35:10.639Z,18.80
2019-05-25T12:37:39.979Z,14.33
2019-05-25T12:40:10.419Z,16.03
2019-05-25T12:42:39.749Z,16.43
2019-05-25T12:45:09.123Z,15.23
2019-05-25T12:47:38.463Z,15.40
2019-05-25T12:50:28.670Z,16.03
2019-05-25T12:52:57.856Z,16.60
2019-05-25T12:55:27.032Z,18.47
2019-05-25T12:57:56.217Z,16.43
2019-05-25T13:00:25.502Z,15.37
2019-05-25T13:02:54.901Z,12.80
2019-05-25T13:05:33.541Z,14.07
2019-05-25T13:07:58.003Z,13.90
2019-05-25T13:10:27.645Z,12.83
2019-05-25T13:12:57.765Z,12.90
2019-05-25T13:15:27.406Z,12.07
2019-05-25T13:17:56.855Z,12.93
2019-05-25T13:20:26.143Z,9.53
2019-05-25T13:22:55.730Z,13.23
2019-05-25T13:25:34.828Z,9.97
2019-05-25T13:28:04.067Z,9.60
2019-05-25T13:30:33.481Z,12.13
2019-05-25T13:33:02.896Z,10.00
2019-05-25T13:35:32.127Z,10.27
2019-05-25T13:38:01.513Z,11.73
2019-05-25T13:40:30.953Z,10.27
2019-05-25T13:43:00.131Z,12.47
2019-05-25T13:45:29.535Z,9.97
2019-05-25T13:47:58.719Z,12.13
2019-05-25T13:50:28.161Z,13.10
2019-05-25T13:52:57.413Z,10.03
2019-05-25T13:55:26.628Z,10.13
2019-05-25T13:57:56.314Z,12.47
2019-05-25T14:00:25.870Z,10.83
2019-05-25T14:02:55.007Z,11.70
2019-05-25T14:05:24.163Z,12.03
2019-05-25T14:07:53.552Z,9.33
2019-05-25T14:10:22.701Z,11.23
2019-05-25T14:12:51.866Z,11.50
2019-05-25T14:15:21.088Z,10.27
2019-05-25T14:17:50.637Z,10.53
2019-05-25T14:20:19.916Z,10.07
2019-05-25T14:22:49.086Z,9.23
2019-05-25T14:25:18.264Z,11.63
2019-05-25T14:27:47.672Z,11.63
2019-05-25T14:30:17.665Z,13.57
2019-05-25T14:32:47.117Z,10.67
2019-05-25T14:35:16.390Z,10.50
2019-05-25T14:37:46.826Z,11.90
2019-05-25T14:40:16.382Z,11.60
2019-05-25T14:42:45.806Z,12.73
2019-05-25T14:45:15.141Z,10.07
2019-05-25T14:47:44.640Z,10.23
2019-05-25T14:50:14.391Z,14.57
2019-05-25T14:52:43.806Z,12.80
2019-05-25T14:55:13.651Z,11.63
2019-05-25T14:57:43.144Z,11.40
2019-05-25T15:00:13.030Z,12.83
2019-05-25T15:02:42.677Z,9.77
2019-05-25T15:05:11.907Z,14.27
2019-05-25T15:07:41.344Z,11.17
2019-05-25T15:10:11.209Z,11.90
2019-05-25T15:12:40.345Z,10.23
2019-05-25T15:15:10.164Z,11.53
2019-05-25T15:17:42.343Z,11.70
2019-05-25T15:20:11.321Z,10.97
2019-05-25T15:22:40.757Z,12.50
2019-05-25T15:25:10.392Z,11.57
2019-05-25T15:27:39.589Z,11.80
2019-05-25T15:30:08.997Z,14.83
2019-05-25T15:32:38.257Z,12.60
2019-05-25T15:35:09.577Z,8.83
2019-05-25T15:37:38.725Z,9.13
2019-05-25T15:40:10.965Z,12.97
2019-05-25T15:42:40.589Z,10.60
2019-05-25T15:45:10.250Z,11.33
2019-05-25T15:47:39.414Z,11.40
2019-05-25T15:50:13.296Z,9.90
2019-05-25T15:52:42.479Z,10.27
2019-05-25T15:55:11.948Z,15.50
2019-05-25T15:57:41.092Z,12.23
2019-05-25T16:00:11.758Z,12.83
2019-05-25T16:02:40.948Z,13.47
2019-05-25T16:05:10.997Z,12.07
2019-05-25T16:07:43.375Z,11.17
2019-05-25T16:10:12.691Z,10.43
2019-05-25T16:12:42.242Z,11.03
2019-05-25T16:15:11.589Z,9.67
2019-05-25T16:17:41.225Z,11.07
2019-05-25T16:20:10.963Z,9.13
2019-05-25T16:22:40.941Z,9.17
2019-05-25T16:25:10.330Z,11.00
2019-05-25T16:27:39.547Z,16.93
2019-05-25T16:30:09.064Z,10.43
2019-05-25T16:33:09.955Z,10.77
2019-05-25T16:35:09.743Z,11.83
2019-05-25T16:37:39.251Z,12.87
2019-05-25T16:40:09.290Z,11.17
2019-05-25T16:42:38.831Z,14.40
2019-05-25T16:45:08.975Z,11.57
2019-05-25T16:47:38.169Z,12.27
2019-05-25T16:50:07.900Z,10.07
2019-05-25T16:52:37.061Z,8.97
2019-05-25T16:55:06.806Z,8.53
2019-05-25T16:57:35.979Z,12.70
2019-05-25T17:00:08.334Z,9.70
2019-05-25T17:02:37.769Z,9.50
2019-05-25T17:05:19.358Z,8.10
2019-05-25T17:07:48.535Z,8.20
2019-05-25T17:10:17.816Z,9.60
2019-05-25T17:12:47.205Z,11.80
2019-05-25T17:15:16.428Z,8.53
2019-05-25T17:17:45.613Z,8.03
2019-05-25T17:20:14.918Z,9.77
2019-05-25T17:22:44.711Z,8.43
2019-05-25T17:25:13.975Z,7.13
2019-05-25T17:27:43.132Z,8.57
2019-05-25T17:30:14.415Z,7.37
2019-05-25T17:32:43.989Z,8.47
2019-05-25T17:35:13.582Z,7.97
2019-05-25T17:37:42.971Z,8.17
2019-05-25T17:40:14.347Z,8.67
2019-05-25T17:42:43.533Z,8.87
2019-05-25T17:45:12.770Z,8.43
2019-05-25T17:47:41.929Z,6.53
2019-05-25T17:50:11.484Z,9.57
2019-05-25T17:52:40.911Z,8.97
2019-05-25T17:55:10.831Z,7.77
2019-05-25T17:57:40.585Z,7.37
2019-05-25T18:00:10.503Z,7.23
2019-05-25T18:02:39.988Z,10.73
2019-05-25T18:05:10.819Z,9.33
2019-05-25T18:07:40.294Z,8.07
2019-05-25T18:10:09.739Z,12.00
2019-05-25T18:12:38.900Z,9.67
2019-05-25T18:15:11.501Z,7.83
2019-05-25T18:17:40.909Z,9.07
2019-05-25T18:20:10.873Z,9.03
2019-05-25T18:22:40.049Z,7.53
2019-05-25T18:25:10.671Z,7.23
2019-05-25T18:27:40.100Z,11.13
2019-05-25T18:30:11.163Z,10.57
2019-05-25T18:32:40.610Z,9.97
2019-05-25T18:35:10.097Z,6.97
2019-05-25T18:37:39.480Z,7.40
2019-05-25T18:40:10.807Z,9.27
2019-05-25T18:42:40.592Z,6.23
2019-05-25T18:45:10.682Z,6.80
2019-05-25T18:47:40.146Z,22.97
2019-05-25T18:50:10.336Z,21.93
2019-05-25T18:52:39.812Z,8.60
2019-05-25T18:55:10.059Z,8.13
2019-05-25T18:57:39.221Z,7.33
2019-05-25T19:00:09.181Z,7.70
2019-05-25T19:02:38.998Z,8.70
2019-05-25T19:05:08.914Z,9.83
2019-05-25T19:07:38.484Z,8.70
2019-05-25T19:10:11.348Z,7.53
2019-05-25T19:12:40.849Z,10.43
2019-05-25T19:15:11.272Z,8.60
2019-05-25T19:17:40.737Z,8.30
2019-05-25T19:20:10.768Z,8.00
2019-05-25T19:22:39.984Z,6.20
2019-05-25T19:25:11.778Z,5.23
2019-05-25T19:27:41.374Z,8.43
2019-05-25T19:30:11.192Z,6.60
2019-05-25T19:32:40.687Z,5.40
2019-05-25T19:35:11.219Z,7.70
2019-05-25T19:37:42.451Z,8.93
2019-05-25T19:40:12.118Z,6.90
2019-05-25T19:42:41.503Z,8.80
2019-05-25T19:45:11.942Z,7.27
2019-05-25T19:47:41.536Z,6.80
2019-05-25T19:50:11.963Z,6.40
2019-05-25T19:52:41.117Z,8.67
2019-05-25T19:55:11.252Z,10.50
2019-05-25T19:57:40.753Z,5.10
2019-05-25T20:00:12.385Z,6.63
2019-05-25T20:02:41.793Z,6.97
2019-05-25T20:05:16.891Z,7.37
2019-05-25T20:07:42.445Z,5.57
2019-05-25T20:10:12.410Z,5.80
2019-05-25T20:12:41.860Z,5.97
2019-05-25T20:15:11.479Z,4.40
2019-05-25T20:17:40.671Z,11.07
2019-05-25T20:20:12.050Z,7.60
2019-05-25T20:22:41.468Z,7.90
2019-05-25T20:25:10.833Z,15.57
2019-05-25T20:27:40.468Z,6.20
2019-05-25T20:30:09.838Z,4.73
2019-05-25T20:32:39.130Z,4.23
2019-05-25T20:35:10.138Z,3.30
2019-05-25T20:37:39.571Z,3.33
2019-05-25T20:40:09.960Z,4.50
2019-05-25T20:42:39.403Z,4.93
2019-05-25T20:45:08.748Z,5.87
2019-05-25T20:47:37.918Z,4.00
2019-05-25T20:50:07.990Z,5.57
2019-05-25T20:52:38.162Z,4.70
2019-05-25T20:55:08.666Z,4.07
2019-05-25T20:57:37.817Z,4.13
2019-05-25T21:00:08.947Z,4.83
2019-05-25T21:02:38.348Z,4.43
2019-05-25T21:05:07.902Z,4.83
2019-05-25T21:07:37.291Z,4.17
2019-05-25T21:10:08.402Z,4.33
2019-05-25T21:12:37.604Z,6.07
2019-05-25T21:15:08.993Z,4.07
2019-05-25T21:17:38.412Z,5.20
2019-05-25T21:20:07.759Z,5.30
2019-05-25T21:22:36.930Z,5.30
2019-05-25T21:25:07.648Z,5.30
2019-05-25T21:27:37.010Z,5.73
2019-05-25T21:30:06.902Z,8.00
2019-05-25T21:32:36.162Z,7.10
2019-05-25T21:35:07.745Z,6.57
2019-05-25T21:37:37.252Z,7.03
2019-05-25T21:40:08.692Z,9.57
2019-05-25T21:42:38.138Z,10.70
2019-05-25T21:45:08.368Z,8.57
2019-05-25T21:47:37.626Z,10.30
2019-05-25T21:50:07.824Z,8.50
2019-05-25T21:52:37.183Z,13.47
2019-05-25T21:55:06.781Z,13.10
2019-05-25T21:57:36.369Z,14.53
2019-05-25T22:00:08.865Z,10.27
2019-05-25T22:02:38.472Z,11.60
2019-05-25T22:05:08.321Z,6.67
2019-05-25T22:07:37.520Z,9.93
2019-05-25T22:10:07.062Z,9.97
2019-05-25T22:12:36.221Z,9.57
2019-05-25T22:15:08.981Z,11.20
2019-05-25T22:17:39.104Z,8.63
2019-05-25T22:20:09.003Z,8.00
2019-05-25T22:22:38.431Z,9.60
2019-05-25T22:25:08.173Z,10.20
2019-05-25T22:27:37.387Z,6.40
2019-05-25T22:30:09.911Z,6.70
2019-05-25T22:32:39.829Z,7.00
2019-05-25T22:35:09.423Z,8.83
2019-05-25T22:37:38.884Z,9.40
2019-05-25T22:40:08.951Z,8.23
2019-05-25T22:42:38.403Z,6.93
2019-05-25T22:45:08.129Z,7.10
2019-05-25T22:47:38.012Z,5.60
2019-05-25T22:50:09.137Z,4.80
2019-05-25T22:52:38.321Z,5.67
2019-05-25T22:55:08.144Z,6.80
2019-05-25T22:57:38.081Z,6.83
2019-05-25T23:00:12.042Z,8.30
2019-05-25T23:02:41.880Z,5.57
2019-05-25T23:05:11.472Z,5.60
2019-05-25T23:07:41.377Z,6.33
2019-05-25T23:10:10.893Z,6.03
2019-05-25T23:12:40.083Z,5.67
2019-05-25T23:15:10.322Z,6.27
2019-05-25T23:17:40.043Z,6.43
2019-05-25T23:20:10.577Z,5.87
2019-05-25T23:22:39.758Z,6.40
2019-05-25T23:25:09.003Z,5.30
2019-05-25T23:27:38.171Z,7.03
2019-05-25T23:30:08.127Z,8.13
2019-05-25T23:32:37.521Z,6.60
2019-05-25T23:35:06.834Z,7.83
2019-05-25T23:37:36.298Z,6.57
2019-05-25T23:40:07.749Z,6.90
2019-05-25T23:42:36.949Z,6.53
2019-05-25T23:45:07.785Z,7.90
2019-05-25T23:47:37.426Z,8.93
2019-05-25T23:50:07.352Z,12.77
2019-05-25T23:52:36.921Z,13.40
2019-05-25T23:55:06.741Z,12.97
2019-05-25T23:57:35.882Z,13.67
